Main page
Satellite images 15-day forecastsClimateMarine weather Cyclones Lightning AirportsFAQ Newsletter About
Weather : Europe Africa North America South America Asia Australia-Oceania Others
Languages Contact

Islamabad, Pakistan

latitude: 33-37N, longitude: 073-06E, elevation: 507 m


METAR: OPRN 201700Z 00000KT 2000 HZ FEW100 SCT200 07/05 Q1018.0/30.06
TAF: OPRN 201530Z 2018/2124 22005KT 1000 BR SCT100 SCT200 TEMPO 2100/2107 00000KT 0500 FG SCT100 SCT200

Time: 22:51 (17:51 UTC)

Current weather observation

The report was made 51 minutes ago, at 17:00 UTC
Calm wind
Temperature 7°C
Humidity 87%
Pressure 1018 hPa
Visibility: 2000 m
Few clouds at a height of 10000 ft
Scattered clouds at a height of 20000 ft
haze

Change units

Forecast

The report was made 2 hours and 21 minutes ago, at 15:30 UTC
Forecast valid from 20 at 18 UTC to 21 at 24 UTC
Wind 5 kt from the Southwest
Visibility: 1000 m
Scattered clouds at a height of 10000 ft
Scattered clouds at a height of 20000 ft
mist
Temporary
from 21 at 00 UTC to 21 at 07 UTC
Wind kt from the North
Visibility: 0500 m
Scattered clouds at a height of 10000 ft
Scattered clouds at a height of 20000 ft
fog
The information on this site is subject to a disclaimer
Weather : Europe Africa North America South America Asia Australia-Oceania Others
Satellite images 15-day forecastsClimateMarine weather Cyclones Lightning AirportsFAQ Languages Contact Newsletter About